createdAt,value
2019-04-20T00:00:52.889Z,8.9
2019-04-20T00:03:01.032Z,9.4
2019-04-20T00:05:03.507Z,9.2
2019-04-20T00:07:06.078Z,9.1
2019-04-20T00:09:20.990Z,8.7
2019-04-20T00:11:40.817Z,9.4
2019-04-20T00:14:01.773Z,9.8
2019-04-20T00:16:05.867Z,8.9
2019-04-20T00:18:11.522Z,9.2
2019-04-20T00:20:23.870Z,9.4
2019-04-20T00:22:42.414Z,9.7
2019-04-20T00:24:55.600Z,9.1
2019-04-20T00:30:06.450Z,9.6
2019-04-20T00:32:30.484Z,10.1
2019-04-20T00:34:46.849Z,9.5
2019-04-20T00:36:49.854Z,9.5
2019-04-20T00:38:56.834Z,10
2019-04-20T00:41:08.860Z,9.8
2019-04-20T00:43:20.821Z,9.4
2019-04-20T00:45:35.020Z,9.4
2019-04-20T00:47:59.082Z,9.9
2019-04-20T00:50:40.088Z,10
2019-04-20T00:53:13.203Z,9.6
2019-04-20T00:55:17.112Z,10.1
2019-04-20T00:57:41.119Z,9.4
2019-04-20T01:00:21.094Z,10.1
2019-04-20T01:02:50.376Z,9.8
2019-04-20T01:05:27.449Z,9.8
2019-04-20T01:07:51.926Z,9.7
2019-04-20T01:09:56.342Z,9.8
2019-04-20T01:11:58.667Z,9.8
2019-04-20T01:14:07.759Z,9.8
2019-04-20T01:16:35.264Z,10.2
2019-04-20T01:18:37.898Z,9.6
2019-04-20T01:20:39.294Z,10.4
2019-04-20T01:22:54.483Z,9.9
2019-04-20T01:25:16.618Z,10.3
2019-04-20T01:27:47.344Z,9.6
2019-04-20T01:30:20.441Z,10.7
2019-04-20T01:32:59.583Z,9.9
2019-04-20T01:35:39.020Z,10.5
2019-04-20T01:38:30.221Z,10.3
2019-04-20T01:40:33.796Z,10.8
2019-04-20T01:42:36.195Z,9.9
2019-04-20T01:44:48.541Z,10.4
2019-04-20T01:47:01.174Z,10.8
2019-04-20T01:49:13.527Z,10.2
2019-04-20T01:51:28.506Z,11.1
2019-04-20T01:56:07.014Z,11.1
2019-04-20T01:58:58.037Z,10
2019-04-20T02:01:22.670Z,11.1
2019-04-20T02:03:38.226Z,11.5
2019-04-20T02:05:51.158Z,10.5
2019-04-20T02:07:58.695Z,11
2019-04-20T02:10:07.972Z,11.3
2019-04-20T02:12:24.143Z,10.8
2019-04-20T05:31:54.267Z,13.9
2019-04-20T05:34:44.670Z,13.4
2019-04-20T05:37:48.533Z,13.3
2019-04-20T05:40:32.399Z,11.8
2019-04-20T05:46:26.044Z,14.2
2019-04-20T05:51:43.091Z,13.5
2019-04-20T05:54:25.007Z,12.5
2019-04-20T05:57:14.233Z,11.6
2019-04-20T06:00:13.415Z,12.2
2019-04-20T06:02:57.610Z,12.3
2019-04-20T06:11:00.261Z,13.6
2019-04-20T06:13:37.717Z,13.3
2019-04-20T06:16:17.778Z,12.2
2019-04-20T06:21:30.942Z,11.7
2019-04-20T06:24:08.075Z,11.6
2019-04-20T06:29:34.579Z,12.7
2019-04-20T06:37:00.383Z,13.5
2019-04-20T06:39:54.178Z,15.4
2019-04-20T06:42:54.710Z,15.9
2019-04-20T06:48:39.993Z,18.3
2019-04-20T06:53:56.757Z,16.3
2019-04-20T06:56:40.617Z,17.2
2019-04-20T06:59:45.684Z,20.7
2019-04-20T07:02:47.994Z,17.5
2019-04-20T07:05:30.064Z,17.5
2019-04-20T07:08:48.629Z,16.4
2019-04-20T07:13:25.898Z,16.3
2019-04-20T07:15:56.508Z,17.8
2019-04-20T07:21:20.665Z,15.3
2019-04-20T07:24:30.404Z,13.6
2019-04-20T07:27:29.328Z,15.1
2019-04-20T07:30:21.052Z,14.7
2019-04-20T07:33:08.385Z,15.4
2019-04-20T07:43:07.514Z,13.8
2019-04-20T07:45:48.624Z,12.3
2019-04-20T07:48:24.638Z,12.9
2019-04-20T07:50:57.869Z,13.5
2019-04-20T07:53:29.065Z,12.3
2019-04-20T07:56:23.195Z,11.7
2019-04-20T07:58:52.373Z,12.2
2019-04-20T08:04:22.213Z,12
2019-04-20T08:06:42.958Z,12.8
2019-04-20T08:09:18.975Z,11.4
2019-04-20T08:12:01.316Z,11.6
2019-04-20T08:15:10.804Z,11.7
2019-04-20T08:18:13.434Z,13.7
2019-04-20T08:21:02.266Z,11.8
2019-04-20T08:23:48.685Z,11.7
2019-04-20T08:26:16.109Z,11.6
2019-04-20T08:28:35.793Z,11.1
2019-04-20T08:31:04.893Z,13
2019-04-20T08:41:16.412Z,10.9
2019-04-20T08:46:05.093Z,10.5
2019-04-20T08:49:01.306Z,10.1
2019-04-20T08:54:11.909Z,12.5
2019-04-20T08:56:41.442Z,11.9
2019-04-20T08:58:46.163Z,10.1
2019-04-20T09:01:00.127Z,11.2
2019-04-20T09:03:21.849Z,9.5
2019-04-20T09:05:45.485Z,9.5
2019-04-20T09:08:10.948Z,10.1
2019-04-20T09:10:47.981Z,9.4
2019-04-20T09:13:20.714Z,9.5
2019-04-20T09:15:25.580Z,8.8
2019-04-20T09:17:46.279Z,9.1
2019-04-20T09:20:06.922Z,9.8
2019-04-20T09:22:33.903Z,8.2
2019-04-20T09:28:05.074Z,7.6
2019-04-20T09:30:39.317Z,7
2019-04-20T09:35:53.029Z,6.9
2019-04-20T09:38:34.659Z,7.3
2019-04-20T09:41:05.916Z,6.4
2019-04-20T09:43:23.869Z,6.1
2019-04-20T09:45:38.012Z,6.5
2019-04-20T09:47:50.171Z,6.1
2019-04-20T09:50:22.189Z,6.5
2019-04-20T09:53:02.261Z,6.2
2019-04-20T09:55:33.455Z,6.3
2019-04-20T09:58:04.799Z,6.2
2019-04-20T10:00:41.811Z,7.4
2019-04-20T10:02:48.532Z,6.6
2019-04-20T10:04:49.864Z,6.2
2019-04-20T10:06:51.886Z,6.4
2019-04-20T10:09:00.360Z,6.1
2019-04-20T10:11:03.646Z,7
2019-04-20T10:13:07.292Z,6.1
2019-04-20T10:15:19.870Z,6.6
2019-04-20T10:17:23.651Z,7.1
2019-04-20T10:19:34.470Z,6.4
2019-04-20T10:21:38.286Z,6.4
2019-04-20T10:23:40.778Z,6.5
2019-04-20T10:25:42.673Z,7.1
2019-04-20T10:27:45.508Z,6.5
2019-04-20T10:29:46.897Z,6.7
2019-04-20T10:31:56.957Z,6.5
2019-04-20T10:33:59.918Z,5.9
2019-04-20T10:36:01.582Z,7
2019-04-20T10:38:03.359Z,7.5
2019-04-20T10:40:04.926Z,7.4
2019-04-20T10:42:06.328Z,7.7
2019-04-20T10:44:09.344Z,7.2
2019-04-20T10:46:11.183Z,6.4
2019-04-20T10:48:13.221Z,7.2
2019-04-20T10:50:14.643Z,6.9
2019-04-20T10:52:15.996Z,6.8
2019-04-20T10:54:18.495Z,7.3
2019-04-20T10:56:21.424Z,8.2
2019-04-20T10:58:22.875Z,8.3
2019-04-20T11:00:25.713Z,7.6
2019-04-20T11:02:27.850Z,7.7
2019-04-20T11:04:30.600Z,7.2
2019-04-20T11:06:32.479Z,7.2
2019-04-20T11:08:34.973Z,7.5
2019-04-20T11:11:03.127Z,7.5
2019-04-20T11:13:09.921Z,7.3
2019-04-20T11:15:12.597Z,7.3
2019-04-20T11:17:14.249Z,6.6
2019-04-20T11:19:15.805Z,7
2019-04-20T11:21:17.566Z,7.2
2019-04-20T11:23:20.448Z,6.8
2019-04-20T11:25:22.180Z,7.7
2019-04-20T11:27:23.564Z,7.5
2019-04-20T11:29:26.465Z,6.9
2019-04-20T11:31:41.533Z,7.9
2019-04-20T11:33:45.957Z,7.7
2019-04-20T11:35:49.973Z,6.3
2019-04-20T11:37:51.699Z,7.1
2019-04-20T11:39:53.110Z,7.2
2019-04-20T11:41:55.838Z,6.2
2019-04-20T11:43:57.962Z,6.1
2019-04-20T11:46:00.594Z,6.5
2019-04-20T11:48:03.376Z,7.6
2019-04-20T11:50:04.809Z,6.8
2019-04-20T11:52:07.828Z,7.1
2019-04-20T11:54:10.569Z,6.3
2019-04-20T11:56:21.123Z,6.1
2019-04-20T11:58:26.267Z,6.6
2019-04-20T12:00:27.801Z,6.6
2019-04-20T12:02:40.781Z,7
2019-04-20T12:07:01.385Z,6.2
2019-04-20T12:09:03.194Z,6.9
2019-04-20T12:11:31.855Z,7.5
2019-04-20T12:13:36.696Z,7.5
2019-04-20T12:15:39.042Z,7.1
2019-04-20T12:17:41.831Z,7.2
2019-04-20T12:19:43.990Z,6.4
2019-04-20T12:21:45.762Z,7.1
2019-04-20T12:23:48.727Z,5.7
2019-04-20T12:25:50.339Z,6
2019-04-20T12:27:58.933Z,6.2
2019-04-20T12:30:02.029Z,6.1
2019-04-20T12:32:07.217Z,7.1
2019-04-20T12:34:10.640Z,6.9
2019-04-20T12:36:12.399Z,7.3
2019-04-20T12:38:14.986Z,5.6
2019-04-20T12:40:17.466Z,6.7
2019-04-20T12:42:19.111Z,6.5
2019-04-20T12:44:21.943Z,7
2019-04-20T12:46:26.182Z,5.9
2019-04-20T12:48:29.385Z,6.7
2019-04-20T12:50:31.921Z,7.2
2019-04-20T12:52:34.741Z,6.8
2019-04-20T12:54:40.866Z,6.5
2019-04-20T12:56:44.777Z,6.4
2019-04-20T12:58:47.489Z,5.9
2019-04-20T13:00:50.135Z,6.9
2019-04-20T13:02:51.633Z,5.6
2019-04-20T13:04:53.496Z,6.7
2019-04-20T13:06:55.504Z,5.7
2019-04-20T13:09:00.969Z,6
2019-04-20T13:11:04.714Z,5.3
2019-04-20T13:13:06.128Z,6
2019-04-20T13:15:08.731Z,5.5
2019-04-20T13:17:10.481Z,6.2
2019-04-20T13:19:13.184Z,6
2019-04-20T13:21:14.644Z,5.5
2019-04-20T13:23:17.295Z,5.5
2019-04-20T13:25:19.224Z,5.5
2019-04-20T13:27:20.991Z,6.2
2019-04-20T13:29:22.798Z,5.9
2019-04-20T13:31:24.193Z,6
2019-04-20T13:33:25.638Z,6.3
2019-04-20T13:35:28.272Z,6.2
2019-04-20T13:37:29.759Z,5.5
2019-04-20T13:39:31.173Z,6.3
2019-04-20T13:41:33.804Z,6.5
2019-04-20T13:43:35.608Z,6.9
2019-04-20T13:45:37.278Z,5.4
2019-04-20T13:47:39.149Z,6.2
2019-04-20T13:49:41.069Z,5.5
2019-04-20T13:51:42.577Z,6.7
2019-04-20T13:53:43.981Z,6.4
2019-04-20T13:55:45.797Z,6.3
2019-04-20T13:57:47.399Z,7.1
2019-04-20T13:59:50.243Z,6.9
2019-04-20T14:01:52.943Z,6.3
2019-04-20T14:03:54.670Z,6.2
2019-04-20T14:05:56.580Z,7.8
2019-04-20T14:07:58.072Z,6.3
2019-04-20T14:09:59.627Z,6.4
2019-04-20T14:12:22.978Z,6.3
2019-04-20T14:14:26.770Z,6.1
2019-04-20T14:16:29.438Z,7.3
2019-04-20T14:18:31.244Z,6.3
2019-04-20T14:20:34.126Z,5.9
2019-04-20T14:22:36.946Z,6.4
2019-04-20T14:24:40.309Z,6.2
2019-04-20T14:26:45.408Z,6.8
2019-04-20T14:28:47.168Z,6.6
2019-04-20T14:30:50.024Z,6.9
2019-04-20T14:32:52.725Z,6.3
2019-04-20T14:34:54.114Z,6.1
2019-04-20T14:36:57.177Z,7
2019-04-20T14:38:58.702Z,6.6
2019-04-20T14:41:00.244Z,6.3
2019-04-20T14:43:01.820Z,6.7
2019-04-20T14:45:04.421Z,6.5
2019-04-20T14:47:06.075Z,6.5
2019-04-20T14:49:07.452Z,5.9
2019-04-20T14:51:09.882Z,6.3
2019-04-20T14:53:11.632Z,6.6
2019-04-20T14:55:17.249Z,6.2
2019-04-20T14:57:19.410Z,6.5
2019-04-20T14:59:20.765Z,7.2
2019-04-20T15:01:22.869Z,6.5
2019-04-20T15:03:24.292Z,6.4
2019-04-20T15:05:26.324Z,6.2
2019-04-20T15:07:28.999Z,7.3
2019-04-20T15:09:34.016Z,7
2019-04-20T15:11:41.479Z,7.3
2019-04-20T15:13:44.365Z,6.2
2019-04-20T15:15:46.499Z,6.1
2019-04-20T15:17:47.958Z,6.3
2019-04-20T15:19:49.731Z,6.3
2019-04-20T15:21:51.499Z,6.2
2019-04-20T15:23:53.384Z,6
2019-04-20T15:25:54.993Z,5.7
2019-04-20T15:27:56.370Z,7
2019-04-20T15:29:58.185Z,6
2019-04-20T15:32:00.050Z,6.5
2019-04-20T15:34:01.473Z,7.3
2019-04-20T15:36:04.324Z,6.5
2019-04-20T15:38:07.156Z,6.6
2019-04-20T15:40:09.050Z,5.8
2019-04-20T15:42:11.659Z,6.3
2019-04-20T15:44:13.339Z,6.1
2019-04-20T15:46:15.438Z,6.7
2019-04-20T15:48:16.854Z,7.3
2019-04-20T15:50:18.228Z,6.8
2019-04-20T15:52:34.855Z,6.2
2019-04-20T15:54:38.196Z,6.6
2019-04-20T15:56:52.351Z,6.7
2019-04-20T15:58:54.668Z,7
2019-04-20T16:00:56.648Z,6.1
2019-04-20T16:02:59.269Z,6.7
2019-04-20T16:05:00.764Z,7.4
2019-04-20T16:07:03.476Z,6.8
2019-04-20T16:09:06.321Z,7.1
2019-04-20T16:11:09.270Z,7.2
2019-04-20T16:13:27.697Z,7.2
2019-04-20T16:15:33.760Z,6.7
2019-04-20T16:17:43.959Z,6.6
2019-04-20T16:20:00.862Z,6.6
2019-04-20T16:22:06.086Z,6.4
2019-04-20T16:24:09.073Z,6.8
2019-04-20T16:26:13.654Z,7.2
2019-04-20T16:28:15.093Z,7.3
2019-04-20T16:30:18.049Z,6.4
2019-04-20T16:32:20.705Z,7.2
2019-04-20T16:34:23.425Z,8
2019-04-20T16:36:26.235Z,7.2
2019-04-20T16:38:30.665Z,12.1
2019-04-20T16:40:32.022Z,9.7
2019-04-20T16:42:38.561Z,7.4
2019-04-20T16:44:41.176Z,7.3
2019-04-20T16:46:42.580Z,8.1
2019-04-20T16:48:44.432Z,8.2
2019-04-20T16:50:46.941Z,7.4
2019-04-20T16:52:48.939Z,7.8
2019-04-20T16:54:50.377Z,7.5
2019-04-20T16:56:53.064Z,7.7
2019-04-20T16:59:05.999Z,7.2
2019-04-20T17:01:09.784Z,7
2019-04-20T17:03:11.272Z,7.2
2019-04-20T17:05:13.655Z,7.2
2019-04-20T17:07:16.719Z,7.4
2019-04-20T17:09:18.122Z,7.7
2019-04-20T17:11:19.453Z,8.5
2019-04-20T17:13:40.434Z,8.4
2019-04-20T17:15:45.845Z,7.3
2019-04-20T17:17:51.546Z,6.7
2019-04-20T17:19:55.548Z,6.7
2019-04-20T17:21:57.457Z,6.7
2019-04-20T17:23:59.641Z,7.3
2019-04-20T17:26:02.163Z,6.7
2019-04-20T17:28:04.795Z,7.2
2019-04-20T17:30:07.550Z,7.1
2019-04-20T17:32:11.397Z,7.5
2019-04-20T17:34:40.622Z,7.1
2019-04-20T17:36:44.664Z,7.8
2019-04-20T17:38:54.766Z,8
2019-04-20T17:41:30.318Z,7.2
2019-04-20T17:44:09.392Z,8.2
2019-04-20T17:46:35.459Z,7.8
2019-04-20T17:49:13.466Z,13.9
2019-04-20T17:51:57.847Z,12.8
2019-04-20T17:54:09.211Z,10.9
2019-04-20T17:56:12.308Z,11.4
2019-04-20T17:58:24.102Z,32.2
2019-04-20T18:00:38.344Z,22.5
2019-04-20T18:03:14.496Z,12.1
2019-04-20T18:10:52.929Z,10.9
2019-04-20T18:13:06.956Z,9.6
2019-04-20T18:15:48.625Z,8.9
2019-04-20T18:18:27.223Z,9.4
2019-04-20T18:20:32.853Z,32
2019-04-20T18:22:37.716Z,16.9
2019-04-20T18:25:24.702Z,12.4
2019-04-20T18:27:59.464Z,12.3
2019-04-20T18:30:32.189Z,14.3
2019-04-20T18:32:38.142Z,9
2019-04-20T18:34:40.440Z,10
2019-04-20T18:36:47.552Z,7.8
2019-04-20T18:39:02.238Z,7.2
2019-04-20T18:41:18.992Z,7.7
2019-04-20T18:43:29.214Z,6.9
2019-04-20T18:46:12.220Z,6.8
2019-04-20T18:50:39.761Z,7.2
2019-04-20T18:52:42.242Z,7.8
2019-04-20T18:54:48.836Z,7.7
2019-04-20T18:56:54.860Z,7.6
2019-04-20T18:58:59.049Z,7.7
2019-04-20T19:01:01.250Z,7.9
2019-04-20T19:03:18.087Z,8.1
2019-04-20T19:05:24.112Z,7.9
2019-04-20T19:07:25.933Z,7.7
2019-04-20T19:09:32.301Z,7.8
2019-04-20T19:11:43.085Z,7.8
2019-04-20T19:13:49.775Z,7.7
2019-04-20T19:16:19.587Z,8.1
2019-04-20T19:20:33.151Z,7.1
2019-04-20T19:22:38.168Z,7.3
2019-04-20T19:24:43.548Z,7.5
2019-04-20T19:26:55.983Z,7.7
2019-04-20T19:29:18.794Z,6.6
2019-04-20T19:31:53.670Z,7.5
2019-04-20T19:36:28.535Z,10
2019-04-20T19:39:00.639Z,9.1
2019-04-20T19:41:35.860Z,7.5
2019-04-20T19:44:06.940Z,7.8
2019-04-20T19:49:19.044Z,6.8
2019-04-20T19:52:02.445Z,7.1
2019-04-20T19:54:54.294Z,7.1
2019-04-20T19:59:45.824Z,7
2019-04-20T20:01:47.831Z,7.6
2019-04-20T20:04:00.586Z,7.8
2019-04-20T20:06:04.042Z,7.5
2019-04-20T20:08:19.674Z,8
2019-04-20T20:10:34.240Z,7.7
2019-04-20T20:12:47.823Z,7.7
2019-04-20T20:14:51.558Z,7.8
2019-04-20T20:22:02.175Z,7.1
2019-04-20T20:24:14.011Z,7.4
2019-04-20T20:26:33.392Z,8.3
2019-04-20T20:28:52.197Z,7.5
2019-04-20T20:31:27.934Z,8.2
2019-04-20T20:34:02.771Z,8.1
2019-04-20T20:36:19.210Z,8.5
2019-04-20T20:38:37.573Z,8.1
2019-04-20T20:41:08.598Z,9.1
2019-04-20T20:43:38.165Z,8.3
2019-04-20T20:46:10.153Z,8.3
2019-04-20T20:48:42.308Z,8.4
2019-04-20T20:51:48.080Z,8.6
2019-04-20T20:54:12.828Z,8.9
2019-04-20T20:56:33.336Z,8.5
2019-04-20T20:59:00.398Z,8.4
2019-04-20T21:01:20.068Z,9.2
2019-04-20T21:03:38.355Z,9
2019-04-20T21:05:41.928Z,9.1
2019-04-20T21:07:46.621Z,8.1
2019-04-20T21:09:50.549Z,7.9
2019-04-20T21:12:06.899Z,8.5
2019-04-20T21:14:21.843Z,8.4
2019-04-20T21:16:34.635Z,9.1
2019-04-20T21:21:15.570Z,8.5
2019-04-20T21:23:45.419Z,8.5
2019-04-20T21:25:52.277Z,8.9
2019-04-20T21:27:55.115Z,9.1
2019-04-20T21:30:01.370Z,9
2019-04-20T21:32:12.862Z,8.9
2019-04-20T21:34:21.527Z,8.7
2019-04-20T21:36:29.859Z,8.9
2019-04-20T21:38:40.730Z,9.3
2019-04-20T21:40:49.344Z,8.8
2019-04-20T21:43:02.273Z,9.4
2019-04-20T21:45:16.288Z,8.9
2019-04-20T21:47:31.358Z,8.9
2019-04-20T21:49:53.896Z,9.7
2019-04-20T21:52:06.381Z,9.8
2019-04-20T21:54:12.147Z,9.5
2019-04-20T21:56:13.544Z,9.8
2019-04-20T21:58:27.651Z,9.3
2019-04-20T22:00:43.875Z,9.9
2019-04-20T22:03:00.142Z,9.8
2019-04-20T22:05:03.451Z,9.8
2019-04-20T22:07:04.791Z,9.6
2019-04-20T22:09:09.052Z,9
2019-04-20T22:11:11.830Z,9.9
2019-04-20T22:13:14.205Z,9.9
2019-04-20T22:15:29.575Z,9.5
2019-04-20T22:17:37.992Z,10.1
2019-04-20T22:20:01.361Z,9.9
2019-04-20T22:22:31.274Z,10.6
2019-04-20T22:25:11.188Z,10.4
2019-04-20T22:27:31.796Z,10.8
2019-04-20T22:29:36.450Z,10.9
2019-04-20T22:31:38.315Z,10.4
2019-04-20T22:33:43.181Z,10.3
2019-04-20T22:35:55.460Z,11.6
2019-04-20T22:38:10.056Z,11.6
2019-04-20T22:42:22.132Z,11.1
2019-04-20T22:44:29.061Z,10.5
2019-04-20T22:46:37.516Z,11.6
2019-04-20T22:48:55.827Z,10.8
2019-04-20T22:51:38.290Z,11.1
2019-04-20T22:56:33.783Z,10.8
2019-04-20T22:59:01.783Z,11.6
2019-04-20T23:01:29.774Z,11.5
2019-04-20T23:03:32.795Z,11.6
2019-04-20T23:05:34.218Z,11.5
2019-04-20T23:07:37.007Z,11
2019-04-20T23:09:51.178Z,11.7
2019-04-20T23:14:00.783Z,12
2019-04-20T23:16:07.090Z,11.9
2019-04-20T23:18:08.761Z,12.1
2019-04-20T23:20:25.139Z,11.9
2019-04-20T23:22:42.216Z,12.1
2019-04-20T23:24:45.376Z,12.4
2019-04-20T23:26:49.405Z,11.5
2019-04-20T23:28:58.971Z,11.7
2019-04-20T23:31:12.191Z,12.5
2019-04-20T23:33:18.205Z,12.4
2019-04-20T23:35:24.833Z,12.2
2019-04-20T23:37:34.802Z,12.3
2019-04-20T23:39:43.703Z,12.3
2019-04-20T23:41:58.518Z,13
2019-04-20T23:44:11.921Z,12
2019-04-20T23:46:24.426Z,12.3
2019-04-20T23:48:35.398Z,13.1
2019-04-20T23:53:19.289Z,12.7
2019-04-20T23:55:23.887Z,13.4
2019-04-20T23:57:26.112Z,13.4
2019-04-20T23:59:39.504Z,13.1
